sensor_id;sensor_type;location;lat;lon;timestamp;P1;durP1;ratioP1;P2;durP2;ratioP2
71253;SDS011;59019;47.638;18.966;2023-05-20T00:00:39;9.38;;;4.60;;
71253;SDS011;59019;47.638;18.966;2023-05-20T00:03:05;8.43;;;4.87;;
71253;SDS011;59019;47.638;18.966;2023-05-20T00:05:31;8.68;;;4.53;;
71253;SDS011;59019;47.638;18.966;2023-05-20T00:07:56;7.57;;;4.50;;
71253;SDS011;59019;47.638;18.966;2023-05-20T00:10:22;9.37;;;4.60;;
71253;SDS011;59019;47.638;18.966;2023-05-20T00:12:47;9.33;;;4.57;;
71253;SDS011;59019;47.638;18.966;2023-05-20T00:15:13;8.65;;;4.28;;
71253;SDS011;59019;47.638;18.966;2023-05-20T00:17:38;7.43;;;4.65;;
71253;SDS011;59019;47.638;18.966;2023-05-20T00:20:04;8.33;;;4.47;;
71253;SDS011;59019;47.638;18.966;2023-05-20T00:22:31;7.88;;;4.40;;
71253;SDS011;59019;47.638;18.966;2023-05-20T00:24:56;6.53;;;4.33;;
71253;SDS011;59019;47.638;18.966;2023-05-20T00:27:22;8.03;;;4.53;;
71253;SDS011;59019;47.638;18.966;2023-05-20T00:29:47;8.98;;;4.20;;
71253;SDS011;59019;47.638;18.966;2023-05-20T00:32:13;6.97;;;4.53;;
71253;SDS011;59019;47.638;18.966;2023-05-20T00:34:38;7.30;;;4.33;;
71253;SDS011;59019;47.638;18.966;2023-05-20T00:37:04;7.57;;;4.80;;
71253;SDS011;59019;47.638;18.966;2023-05-20T00:39:30;8.43;;;5.28;;
71253;SDS011;59019;47.638;18.966;2023-05-20T00:41:55;9.90;;;4.87;;
71253;SDS011;59019;47.638;18.966;2023-05-20T00:44:24;10.43;;;5.00;;
71253;SDS011;59019;47.638;18.966;2023-05-20T00:46:50;8.27;;;4.82;;
71253;SDS011;59019;47.638;18.966;2023-05-20T00:49:17;10.90;;;5.70;;
71253;SDS011;59019;47.638;18.966;2023-05-20T00:51:43;9.70;;;4.83;;
71253;SDS011;59019;47.638;18.966;2023-05-20T00:54:08;10.90;;;4.82;;
71253;SDS011;59019;47.638;18.966;2023-05-20T00:56:34;8.10;;;4.47;;
71253;SDS011;59019;47.638;18.966;2023-05-20T00:59:00;7.80;;;4.43;;
71253;SDS011;59019;47.638;18.966;2023-05-20T01:01:26;7.93;;;4.90;;
71253;SDS011;59019;47.638;18.966;2023-05-20T01:03:52;7.10;;;4.73;;
71253;SDS011;59019;47.638;18.966;2023-05-20T01:06:17;7.23;;;4.07;;
71253;SDS011;59019;47.638;18.966;2023-05-20T01:08:42;7.27;;;4.13;;
71253;SDS011;59019;47.638;18.966;2023-05-20T01:11:16;7.63;;;4.43;;
71253;SDS011;59019;47.638;18.966;2023-05-20T01:13:54;7.47;;;4.20;;
71253;SDS011;59019;47.638;18.966;2023-05-20T01:16:25;8.77;;;4.47;;
71253;SDS011;59019;47.638;18.966;2023-05-20T01:18:51;7.65;;;4.35;;
71253;SDS011;59019;47.638;18.966;2023-05-20T01:21:19;9.18;;;4.65;;
71253;SDS011;59019;47.638;18.966;2023-05-20T01:23:46;9.25;;;5.07;;
71253;SDS011;59019;47.638;18.966;2023-05-20T01:26:12;10.30;;;5.00;;
71253;SDS011;59019;47.638;18.966;2023-05-20T01:28:39;8.82;;;4.90;;
71253;SDS011;59019;47.638;18.966;2023-05-20T01:31:10;9.57;;;5.20;;
71253;SDS011;59019;47.638;18.966;2023-05-20T01:33:49;9.25;;;4.85;;
71253;SDS011;59019;47.638;18.966;2023-05-20T01:36:18;11.48;;;5.38;;
71253;SDS011;59019;47.638;18.966;2023-05-20T01:38:46;10.67;;;5.33;;
71253;SDS011;59019;47.638;18.966;2023-05-20T01:41:13;9.30;;;5.15;;
71253;SDS011;59019;47.638;18.966;2023-05-20T01:43:39;10.70;;;5.70;;
71253;SDS011;59019;47.638;18.966;2023-05-20T01:46:05;8.90;;;5.55;;
71253;SDS011;59019;47.638;18.966;2023-05-20T01:48:31;10.35;;;5.13;;
71253;SDS011;59019;47.638;18.966;2023-05-20T01:50:57;8.03;;;4.90;;
71253;SDS011;59019;47.638;18.966;2023-05-20T01:53:22;9.87;;;4.53;;
71253;SDS011;59019;47.638;18.966;2023-05-20T01:55:48;9.50;;;5.32;;
71253;SDS011;59019;47.638;18.966;2023-05-20T01:58:13;9.43;;;4.83;;
71253;SDS011;59019;47.638;18.966;2023-05-20T02:00:39;7.87;;;4.90;;
71253;SDS011;59019;47.638;18.966;2023-05-20T02:03:04;10.00;;;4.88;;
71253;SDS011;59019;47.638;18.966;2023-05-20T02:05:30;9.20;;;4.37;;
71253;SDS011;59019;47.638;18.966;2023-05-20T02:07:56;6.82;;;4.45;;
71253;SDS011;59019;47.638;18.966;2023-05-20T02:10:21;9.30;;;4.20;;
71253;SDS011;59019;47.638;18.966;2023-05-20T02:12:47;7.90;;;4.80;;
71253;SDS011;59019;47.638;18.966;2023-05-20T02:15:13;7.65;;;3.75;;
71253;SDS011;59019;47.638;18.966;2023-05-20T02:17:38;7.80;;;4.07;;
71253;SDS011;59019;47.638;18.966;2023-05-20T02:20:05;9.80;;;3.83;;
71253;SDS011;59019;47.638;18.966;2023-05-20T02:22:31;8.98;;;4.30;;
71253;SDS011;59019;47.638;18.966;2023-05-20T02:24:57;8.25;;;4.60;;
71253;SDS011;59019;47.638;18.966;2023-05-20T02:27:22;7.93;;;4.73;;
71253;SDS011;59019;47.638;18.966;2023-05-20T02:29:48;7.60;;;4.20;;
71253;SDS011;59019;47.638;18.966;2023-05-20T02:32:13;7.40;;;4.65;;
71253;SDS011;59019;47.638;18.966;2023-05-20T02:34:39;8.73;;;4.95;;
71253;SDS011;59019;47.638;18.966;2023-05-20T02:37:04;9.67;;;4.87;;
71253;SDS011;59019;47.638;18.966;2023-05-20T02:39:30;9.05;;;5.20;;
71253;SDS011;59019;47.638;18.966;2023-05-20T02:41:56;8.67;;;5.07;;
71253;SDS011;59019;47.638;18.966;2023-05-20T02:44:22;8.95;;;5.20;;
71253;SDS011;59019;47.638;18.966;2023-05-20T02:46:47;10.03;;;5.50;;
71253;SDS011;59019;47.638;18.966;2023-05-20T02:49:13;10.70;;;5.70;;
71253;SDS011;59019;47.638;18.966;2023-05-20T02:51:39;9.23;;;5.43;;
71253;SDS011;59019;47.638;18.966;2023-05-20T02:54:04;11.68;;;5.55;;
71253;SDS011;59019;47.638;18.966;2023-05-20T02:56:30;10.68;;;5.50;;
71253;SDS011;59019;47.638;18.966;2023-05-20T02:58:56;9.90;;;6.17;;
71253;SDS011;59019;47.638;18.966;2023-05-20T03:01:21;12.53;;;5.50;;
71253;SDS011;59019;47.638;18.966;2023-05-20T03:03:47;9.80;;;5.07;;
71253;SDS011;59019;47.638;18.966;2023-05-20T03:06:13;11.67;;;6.33;;
71253;SDS011;59019;47.638;18.966;2023-05-20T03:08:38;9.60;;;5.68;;
71253;SDS011;59019;47.638;18.966;2023-05-20T03:11:08;10.70;;;5.57;;
71253;SDS011;59019;47.638;18.966;2023-05-20T03:13:33;12.05;;;6.22;;
71253;SDS011;59019;47.638;18.966;2023-05-20T03:15:59;10.45;;;5.35;;
71253;SDS011;59019;47.638;18.966;2023-05-20T03:18:25;8.60;;;5.00;;
71253;SDS011;59019;47.638;18.966;2023-05-20T03:20:52;11.65;;;5.38;;
71253;SDS011;59019;47.638;18.966;2023-05-20T03:23:18;8.73;;;5.07;;
71253;SDS011;59019;47.638;18.966;2023-05-20T03:25:43;12.90;;;5.22;;
71253;SDS011;59019;47.638;18.966;2023-05-20T03:28:09;8.50;;;5.33;;
71253;SDS011;59019;47.638;18.966;2023-05-20T03:30:34;9.10;;;5.32;;
71253;SDS011;59019;47.638;18.966;2023-05-20T03:33:00;9.30;;;5.13;;
71253;SDS011;59019;47.638;18.966;2023-05-20T03:35:27;11.25;;;5.38;;
71253;SDS011;59019;47.638;18.966;2023-05-20T03:37:52;9.33;;;5.23;;
71253;SDS011;59019;47.638;18.966;2023-05-20T03:40:18;8.02;;;4.90;;
71253;SDS011;59019;47.638;18.966;2023-05-20T03:42:45;10.20;;;4.97;;
71253;SDS011;59019;47.638;18.966;2023-05-20T03:45:10;11.10;;;5.53;;
71253;SDS011;59019;47.638;18.966;2023-05-20T03:47:36;8.07;;;4.90;;
71253;SDS011;59019;47.638;18.966;2023-05-20T03:50:02;9.40;;;5.88;;
71253;SDS011;59019;47.638;18.966;2023-05-20T03:52:27;10.47;;;5.67;;
71253;SDS011;59019;47.638;18.966;2023-05-20T03:54:53;10.07;;;5.30;;
71253;SDS011;59019;47.638;18.966;2023-05-20T03:57:18;9.68;;;5.57;;
71253;SDS011;59019;47.638;18.966;2023-05-20T03:59:44;9.80;;;5.70;;
71253;SDS011;59019;47.638;18.966;2023-05-20T04:02:10;10.40;;;5.90;;
71253;SDS011;59019;47.638;18.966;2023-05-20T04:04:36;8.70;;;5.65;;
71253;SDS011;59019;47.638;18.966;2023-05-20T04:07:02;11.80;;;6.82;;
71253;SDS011;59019;47.638;18.966;2023-05-20T04:09:29;10.10;;;6.25;;
71253;SDS011;59019;47.638;18.966;2023-05-20T04:11:55;12.10;;;6.10;;
71253;SDS011;59019;47.638;18.966;2023-05-20T04:14:21;13.88;;;7.32;;
71253;SDS011;59019;47.638;18.966;2023-05-20T04:16:46;12.68;;;6.30;;
71253;SDS011;59019;47.638;18.966;2023-05-20T04:19:14;10.80;;;5.35;;
71253;SDS011;59019;47.638;18.966;2023-05-20T04:21:41;9.07;;;6.03;;
71253;SDS011;59019;47.638;18.966;2023-05-20T04:24:07;10.00;;;5.50;;
71253;SDS011;59019;47.638;18.966;2023-05-20T04:26:33;9.95;;;5.43;;
71253;SDS011;59019;47.638;18.966;2023-05-20T04:29:00;9.10;;;5.23;;
71253;SDS011;59019;47.638;18.966;2023-05-20T04:31:28;8.95;;;5.03;;
71253;SDS011;59019;47.638;18.966;2023-05-20T04:33:53;9.43;;;5.38;;
71253;SDS011;59019;47.638;18.966;2023-05-20T04:36:19;9.33;;;5.33;;
71253;SDS011;59019;47.638;18.966;2023-05-20T04:38:46;10.75;;;5.50;;
71253;SDS011;59019;47.638;18.966;2023-05-20T04:41:12;9.13;;;5.10;;
71253;SDS011;59019;47.638;18.966;2023-05-20T04:43:38;10.07;;;5.40;;
71253;SDS011;59019;47.638;18.966;2023-05-20T04:46:04;9.35;;;5.53;;
71253;SDS011;59019;47.638;18.966;2023-05-20T04:48:32;10.68;;;5.50;;
71253;SDS011;59019;47.638;18.966;2023-05-20T04:50:58;9.60;;;5.53;;
71253;SDS011;59019;47.638;18.966;2023-05-20T04:53:24;9.25;;;5.30;;
71253;SDS011;59019;47.638;18.966;2023-05-20T04:55:53;9.45;;;5.13;;
71253;SDS011;59019;47.638;18.966;2023-05-20T04:58:19;8.13;;;4.90;;
71253;SDS011;59019;47.638;18.966;2023-05-20T05:00:48;7.88;;;4.53;;
71253;SDS011;59019;47.638;18.966;2023-05-20T05:03:15;8.70;;;5.00;;
71253;SDS011;59019;47.638;18.966;2023-05-20T05:05:41;9.55;;;5.15;;
71253;SDS011;59019;47.638;18.966;2023-05-20T05:08:07;10.33;;;4.93;;
71253;SDS011;59019;47.638;18.966;2023-05-20T05:10:33;9.23;;;4.80;;
71253;SDS011;59019;47.638;18.966;2023-05-20T05:12:59;8.53;;;4.73;;
71253;SDS011;59019;47.638;18.966;2023-05-20T05:15:25;10.20;;;4.55;;
71253;SDS011;59019;47.638;18.966;2023-05-20T05:17:52;9.75;;;4.97;;
71253;SDS011;59019;47.638;18.966;2023-05-20T05:20:17;9.60;;;4.60;;
71253;SDS011;59019;47.638;18.966;2023-05-20T05:22:43;10.63;;;4.90;;
71253;SDS011;59019;47.638;18.966;2023-05-20T05:25:09;8.70;;;4.95;;
71253;SDS011;59019;47.638;18.966;2023-05-20T05:27:36;7.18;;;4.55;;
71253;SDS011;59019;47.638;18.966;2023-05-20T05:30:02;7.80;;;4.70;;
71253;SDS011;59019;47.638;18.966;2023-05-20T05:32:29;9.32;;;4.63;;
71253;SDS011;59019;47.638;18.966;2023-05-20T05:34:54;12.10;;;4.90;;
71253;SDS011;59019;47.638;18.966;2023-05-20T05:37:20;7.60;;;4.65;;
71253;SDS011;59019;47.638;18.966;2023-05-20T05:39:46;8.70;;;4.63;;
71253;SDS011;59019;47.638;18.966;2023-05-20T05:42:11;8.80;;;4.60;;
71253;SDS011;59019;47.638;18.966;2023-05-20T05:44:37;7.83;;;4.90;;
71253;SDS011;59019;47.638;18.966;2023-05-20T05:47:03;7.97;;;5.00;;
71253;SDS011;59019;47.638;18.966;2023-05-20T05:49:29;10.07;;;4.70;;
71253;SDS011;59019;47.638;18.966;2023-05-20T05:51:55;7.90;;;4.45;;
71253;SDS011;59019;47.638;18.966;2023-05-20T05:54:20;8.27;;;5.00;;
71253;SDS011;59019;47.638;18.966;2023-05-20T05:56:46;8.90;;;4.80;;
71253;SDS011;59019;47.638;18.966;2023-05-20T05:59:11;9.07;;;4.93;;
71253;SDS011;59019;47.638;18.966;2023-05-20T06:01:37;8.88;;;4.82;;
71253;SDS011;59019;47.638;18.966;2023-05-20T06:04:02;8.03;;;4.93;;
71253;SDS011;59019;47.638;18.966;2023-05-20T06:06:28;7.60;;;5.10;;
71253;SDS011;59019;47.638;18.966;2023-05-20T06:08:55;9.52;;;4.97;;
71253;SDS011;59019;47.638;18.966;2023-05-20T06:11:21;7.85;;;4.88;;
71253;SDS011;59019;47.638;18.966;2023-05-20T06:13:48;8.93;;;4.80;;
71253;SDS011;59019;47.638;18.966;2023-05-20T06:16:13;8.33;;;4.90;;
71253;SDS011;59019;47.638;18.966;2023-05-20T06:18:39;11.40;;;6.38;;
71253;SDS011;59019;47.638;18.966;2023-05-20T06:21:05;8.13;;;5.00;;
71253;SDS011;59019;47.638;18.966;2023-05-20T06:23:30;9.77;;;5.10;;
71253;SDS011;59019;47.638;18.966;2023-05-20T06:25:56;8.57;;;4.80;;
71253;SDS011;59019;47.638;18.966;2023-05-20T06:28:23;8.43;;;4.90;;
71253;SDS011;59019;47.638;18.966;2023-05-20T06:30:48;12.13;;;5.90;;
71253;SDS011;59019;47.638;18.966;2023-05-20T06:33:14;8.27;;;5.03;;
71253;SDS011;59019;47.638;18.966;2023-05-20T06:35:39;10.63;;;5.28;;
71253;SDS011;59019;47.638;18.966;2023-05-20T06:38:06;7.65;;;5.13;;
71253;SDS011;59019;47.638;18.966;2023-05-20T06:40:32;8.30;;;5.00;;
71253;SDS011;59019;47.638;18.966;2023-05-20T06:42:57;8.53;;;5.20;;
71253;SDS011;59019;47.638;18.966;2023-05-20T06:45:23;11.05;;;4.80;;
71253;SDS011;59019;47.638;18.966;2023-05-20T06:47:48;7.70;;;4.80;;
71253;SDS011;59019;47.638;18.966;2023-05-20T06:50:14;8.43;;;4.47;;
71253;SDS011;59019;47.638;18.966;2023-05-20T06:52:39;7.13;;;4.60;;
71253;SDS011;59019;47.638;18.966;2023-05-20T06:55:05;7.47;;;5.00;;
71253;SDS011;59019;47.638;18.966;2023-05-20T06:57:31;9.30;;;5.18;;
71253;SDS011;59019;47.638;18.966;2023-05-20T06:59:56;11.07;;;5.40;;
71253;SDS011;59019;47.638;18.966;2023-05-20T07:02:22;10.70;;;5.00;;
71253;SDS011;59019;47.638;18.966;2023-05-20T07:04:48;11.10;;;7.18;;
71253;SDS011;59019;47.638;18.966;2023-05-20T07:07:13;8.95;;;5.30;;
71253;SDS011;59019;47.638;18.966;2023-05-20T07:09:39;8.50;;;5.15;;
71253;SDS011;59019;47.638;18.966;2023-05-20T07:12:05;8.53;;;5.30;;
71253;SDS011;59019;47.638;18.966;2023-05-20T07:14:32;10.43;;;5.20;;
71253;SDS011;59019;47.638;18.966;2023-05-20T07:16:57;7.57;;;5.00;;
71253;SDS011;59019;47.638;18.966;2023-05-20T07:19:23;8.60;;;5.10;;
71253;SDS011;59019;47.638;18.966;2023-05-20T07:21:48;8.40;;;5.25;;
71253;SDS011;59019;47.638;18.966;2023-05-20T07:24:14;10.60;;;5.97;;
71253;SDS011;59019;47.638;18.966;2023-05-20T07:26:40;9.30;;;5.38;;
71253;SDS011;59019;47.638;18.966;2023-05-20T07:29:06;10.03;;;5.33;;
71253;SDS011;59019;47.638;18.966;2023-05-20T07:31:31;10.75;;;5.20;;
71253;SDS011;59019;47.638;18.966;2023-05-20T07:33:57;10.77;;;5.30;;
71253;SDS011;59019;47.638;18.966;2023-05-20T07:36:24;10.27;;;5.70;;
71253;SDS011;59019;47.638;18.966;2023-05-20T07:38:51;10.70;;;5.00;;
71253;SDS011;59019;47.638;18.966;2023-05-20T07:41:17;8.20;;;5.00;;
71253;SDS011;59019;47.638;18.966;2023-05-20T07:43:43;7.72;;;5.15;;
71253;SDS011;59019;47.638;18.966;2023-05-20T07:46:10;9.57;;;5.53;;
71253;SDS011;59019;47.638;18.966;2023-05-20T07:48:35;10.50;;;5.83;;
71253;SDS011;59019;47.638;18.966;2023-05-20T07:51:01;8.82;;;5.65;;
71253;SDS011;59019;47.638;18.966;2023-05-20T07:53:26;11.53;;;5.77;;
71253;SDS011;59019;47.638;18.966;2023-05-20T07:55:52;11.15;;;5.82;;
71253;SDS011;59019;47.638;18.966;2023-05-20T07:58:17;10.35;;;6.22;;
71253;SDS011;59019;47.638;18.966;2023-05-20T08:00:43;9.57;;;6.07;;
71253;SDS011;59019;47.638;18.966;2023-05-20T08:03:09;10.40;;;6.18;;
71253;SDS011;59019;47.638;18.966;2023-05-20T08:05:36;10.20;;;5.68;;
71253;SDS011;59019;47.638;18.966;2023-05-20T08:08:02;9.30;;;5.60;;
71253;SDS011;59019;47.638;18.966;2023-05-20T08:10:29;9.70;;;5.80;;
71253;SDS011;59019;47.638;18.966;2023-05-20T08:12:55;15.60;;;7.07;;
71253;SDS011;59019;47.638;18.966;2023-05-20T08:15:20;18.60;;;6.40;;
71253;SDS011;59019;47.638;18.966;2023-05-20T08:17:46;14.40;;;6.38;;
71253;SDS011;59019;47.638;18.966;2023-05-20T08:20:12;10.77;;;6.00;;
71253;SDS011;59019;47.638;18.966;2023-05-20T08:22:37;8.90;;;6.03;;
71253;SDS011;59019;47.638;18.966;2023-05-20T08:25:05;31.85;;;7.43;;
71253;SDS011;59019;47.638;18.966;2023-05-20T08:27:32;17.20;;;6.68;;
71253;SDS011;59019;47.638;18.966;2023-05-20T08:29:58;9.77;;;6.17;;
71253;SDS011;59019;47.638;18.966;2023-05-20T08:32:23;10.40;;;6.13;;
71253;SDS011;59019;47.638;18.966;2023-05-20T08:34:49;17.67;;;6.93;;
71253;SDS011;59019;47.638;18.966;2023-05-20T08:37:14;9.90;;;6.03;;
71253;SDS011;59019;47.638;18.966;2023-05-20T08:39:40;12.70;;;6.28;;
71253;SDS011;59019;47.638;18.966;2023-05-20T08:42:07;10.18;;;6.30;;
71253;SDS011;59019;47.638;18.966;2023-05-20T08:44:35;10.00;;;6.37;;
71253;SDS011;59019;47.638;18.966;2023-05-20T08:47:01;11.30;;;6.78;;
71253;SDS011;59019;47.638;18.966;2023-05-20T08:49:27;10.02;;;6.18;;
71253;SDS011;59019;47.638;18.966;2023-05-20T08:51:53;10.70;;;6.72;;
71253;SDS011;59019;47.638;18.966;2023-05-20T08:54:20;9.87;;;6.07;;
71253;SDS011;59019;47.638;18.966;2023-05-20T08:56:47;12.10;;;7.55;;
71253;SDS011;59019;47.638;18.966;2023-05-20T08:59:13;10.97;;;6.17;;
71253;SDS011;59019;47.638;18.966;2023-05-20T09:01:42;21.33;;;7.53;;
71253;SDS011;59019;47.638;18.966;2023-05-20T09:04:08;34.28;;;7.60;;
71253;SDS011;59019;47.638;18.966;2023-05-20T09:06:46;10.90;;;7.97;;
71253;SDS011;59019;47.638;18.966;2023-05-20T09:09:12;11.70;;;6.53;;
71253;SDS011;59019;47.638;18.966;2023-05-20T09:11:38;13.13;;;7.35;;
71253;SDS011;59019;47.638;18.966;2023-05-20T09:14:05;9.70;;;6.78;;
71253;SDS011;59019;47.638;18.966;2023-05-20T09:16:31;28.02;;;7.60;;
71253;SDS011;59019;47.638;18.966;2023-05-20T09:18:57;10.53;;;6.90;;
71253;SDS011;59019;47.638;18.966;2023-05-20T09:21:26;11.67;;;6.60;;
71253;SDS011;59019;47.638;18.966;2023-05-20T09:23:52;13.15;;;6.90;;
71253;SDS011;59019;47.638;18.966;2023-05-20T09:26:21;9.80;;;6.60;;
71253;SDS011;59019;47.638;18.966;2023-05-20T09:28:48;14.18;;;6.85;;
71253;SDS011;59019;47.638;18.966;2023-05-20T09:31:13;10.43;;;6.67;;
71253;SDS011;59019;47.638;18.966;2023-05-20T09:33:39;14.50;;;7.23;;
71253;SDS011;59019;47.638;18.966;2023-05-20T09:36:08;14.73;;;7.30;;
71253;SDS011;59019;47.638;18.966;2023-05-20T09:38:38;21.98;;;7.22;;
71253;SDS011;59019;47.638;18.966;2023-05-20T09:41:08;30.10;;;7.90;;
71253;SDS011;59019;47.638;18.966;2023-05-20T09:43:36;80.30;;;11.15;;
71253;SDS011;59019;47.638;18.966;2023-05-20T09:46:03;34.10;;;9.27;;
71253;SDS011;59019;47.638;18.966;2023-05-20T09:48:29;19.50;;;7.57;;
71253;SDS011;59019;47.638;18.966;2023-05-20T10:21:35;10.57;;;6.72;;
71253;SDS011;59019;47.638;18.966;2023-05-20T10:24:08;11.63;;;7.10;;
71253;SDS011;59019;47.638;18.966;2023-05-20T10:26:38;11.45;;;6.95;;
71253;SDS011;59019;47.638;18.966;2023-05-20T10:29:15;9.95;;;6.47;;
71253;SDS011;59019;47.638;18.966;2023-05-20T10:31:50;10.85;;;6.57;;
71253;SDS011;59019;47.638;18.966;2023-05-20T10:34:17;9.25;;;6.53;;
71253;SDS011;59019;47.638;18.966;2023-05-20T10:36:44;8.97;;;6.30;;
71253;SDS011;59019;47.638;18.966;2023-05-20T10:39:24;9.10;;;6.28;;
71253;SDS011;59019;47.638;18.966;2023-05-20T10:41:51;10.50;;;6.85;;
71253;SDS011;59019;47.638;18.966;2023-05-20T10:44:17;10.10;;;6.90;;
71253;SDS011;59019;47.638;18.966;2023-05-20T10:46:42;8.57;;;6.43;;
71253;SDS011;59019;47.638;18.966;2023-05-20T10:49:17;11.97;;;6.47;;
71253;SDS011;59019;47.638;18.966;2023-05-20T10:51:44;8.95;;;6.47;;
71253;SDS011;59019;47.638;18.966;2023-05-20T10:54:11;8.75;;;6.50;;
71253;SDS011;59019;47.638;18.966;2023-05-20T10:56:38;8.60;;;6.40;;
71253;SDS011;59019;47.638;18.966;2023-05-20T10:59:05;10.98;;;6.55;;
71253;SDS011;59019;47.638;18.966;2023-05-20T11:01:32;9.70;;;6.85;;
71253;SDS011;59019;47.638;18.966;2023-05-20T11:03:57;9.05;;;6.80;;
71253;SDS011;59019;47.638;18.966;2023-05-20T11:06:27;9.07;;;6.80;;
71253;SDS011;59019;47.638;18.966;2023-05-20T11:08:53;10.77;;;6.75;;
71253;SDS011;59019;47.638;18.966;2023-05-20T11:11:20;11.82;;;6.93;;
71253;SDS011;59019;47.638;18.966;2023-05-20T11:13:50;8.98;;;6.85;;
71253;SDS011;59019;47.638;18.966;2023-05-20T11:16:17;10.13;;;7.00;;
71253;SDS011;59019;47.638;18.966;2023-05-20T11:18:46;9.98;;;6.85;;
71253;SDS011;59019;47.638;18.966;2023-05-20T11:21:13;10.60;;;6.47;;
71253;SDS011;59019;47.638;18.966;2023-05-20T11:23:38;10.10;;;6.57;;
71253;SDS011;59019;47.638;18.966;2023-05-20T11:26:04;12.07;;;6.88;;
71253;SDS011;59019;47.638;18.966;2023-05-20T11:28:29;9.60;;;6.77;;
71253;SDS011;59019;47.638;18.966;2023-05-20T11:30:58;10.48;;;6.85;;
71253;SDS011;59019;47.638;18.966;2023-05-20T11:33:25;9.90;;;6.88;;
71253;SDS011;59019;47.638;18.966;2023-05-20T11:35:51;9.93;;;7.05;;
71253;SDS011;59019;47.638;18.966;2023-05-20T11:38:18;10.73;;;7.03;;
71253;SDS011;59019;47.638;18.966;2023-05-20T11:40:45;10.50;;;7.00;;
71253;SDS011;59019;47.638;18.966;2023-05-20T11:43:15;9.90;;;6.88;;
71253;SDS011;59019;47.638;18.966;2023-05-20T11:45:45;9.52;;;6.40;;
71253;SDS011;59019;47.638;18.966;2023-05-20T11:48:17;9.67;;;7.20;;
71253;SDS011;59019;47.638;18.966;2023-05-20T11:50:43;10.38;;;7.13;;
71253;SDS011;59019;47.638;18.966;2023-05-20T11:53:15;9.57;;;6.78;;
71253;SDS011;59019;47.638;18.966;2023-05-20T11:55:45;10.50;;;7.20;;
71253;SDS011;59019;47.638;18.966;2023-05-20T11:58:15;10.40;;;7.10;;
71253;SDS011;59019;47.638;18.966;2023-05-20T12:00:42;9.53;;;6.97;;
71253;SDS011;59019;47.638;18.966;2023-05-20T12:03:08;11.20;;;7.00;;
71253;SDS011;59019;47.638;18.966;2023-05-20T12:05:33;9.20;;;6.87;;
71253;SDS011;59019;47.638;18.966;2023-05-20T12:07:59;12.55;;;7.13;;
71253;SDS011;59019;47.638;18.966;2023-05-20T12:10:25;9.40;;;6.50;;
71253;SDS011;59019;47.638;18.966;2023-05-20T12:12:50;9.30;;;6.77;;
71253;SDS011;59019;47.638;18.966;2023-05-20T12:15:16;9.43;;;7.45;;
71253;SDS011;59019;47.638;18.966;2023-05-20T12:17:45;10.65;;;6.72;;
71253;SDS011;59019;47.638;18.966;2023-05-20T12:20:13;11.32;;;7.30;;
71253;SDS011;59019;47.638;18.966;2023-05-20T12:22:41;9.37;;;6.87;;
71253;SDS011;59019;47.638;18.966;2023-05-20T12:25:07;9.75;;;7.15;;
71253;SDS011;59019;47.638;18.966;2023-05-20T12:27:34;10.27;;;6.88;;
71253;SDS011;59019;47.638;18.966;2023-05-20T12:30:00;11.53;;;7.17;;
71253;SDS011;59019;47.638;18.966;2023-05-20T12:32:25;12.10;;;7.50;;
71253;SDS011;59019;47.638;18.966;2023-05-20T12:34:51;9.27;;;6.70;;
71253;SDS011;59019;47.638;18.966;2023-05-20T12:37:16;11.53;;;7.30;;
71253;SDS011;59019;47.638;18.966;2023-05-20T12:39:42;9.80;;;6.70;;
71253;SDS011;59019;47.638;18.966;2023-05-20T12:42:07;10.20;;;7.15;;
71253;SDS011;59019;47.638;18.966;2023-05-20T12:44:33;13.57;;;6.72;;
71253;SDS011;59019;47.638;18.966;2023-05-20T12:46:58;9.87;;;6.90;;
71253;SDS011;59019;47.638;18.966;2023-05-20T12:49:24;13.25;;;7.13;;
71253;SDS011;59019;47.638;18.966;2023-05-20T12:51:50;13.90;;;6.80;;
71253;SDS011;59019;47.638;18.966;2023-05-20T12:54:15;10.70;;;6.90;;
71253;SDS011;59019;47.638;18.966;2023-05-20T12:56:41;11.02;;;7.03;;
71253;SDS011;59019;47.638;18.966;2023-05-20T12:59:11;13.68;;;6.50;;
71253;SDS011;59019;47.638;18.966;2023-05-20T13:01:37;10.55;;;6.47;;
71253;SDS011;59019;47.638;18.966;2023-05-20T13:04:03;10.10;;;6.73;;
71253;SDS011;59019;47.638;18.966;2023-05-20T13:06:29;10.43;;;6.65;;
71253;SDS011;59019;47.638;18.966;2023-05-20T13:08:55;11.25;;;7.13;;
71253;SDS011;59019;47.638;18.966;2023-05-20T13:11:21;11.23;;;6.67;;
71253;SDS011;59019;47.638;18.966;2023-05-20T13:13:47;15.40;;;7.22;;
71253;SDS011;59019;47.638;18.966;2023-05-20T13:16:13;11.03;;;6.73;;
71253;SDS011;59019;47.638;18.966;2023-05-20T13:18:40;8.45;;;6.25;;
71253;SDS011;59019;47.638;18.966;2023-05-20T13:21:06;11.00;;;6.80;;
71253;SDS011;59019;47.638;18.966;2023-05-20T13:23:32;8.60;;;6.13;;
71253;SDS011;59019;47.638;18.966;2023-05-20T13:25:57;9.87;;;6.80;;
71253;SDS011;59019;47.638;18.966;2023-05-20T13:28:23;10.05;;;7.07;;
71253;SDS011;59019;47.638;18.966;2023-05-20T13:30:48;15.10;;;7.10;;
71253;SDS011;59019;47.638;18.966;2023-05-20T13:33:14;11.03;;;7.00;;
71253;SDS011;59019;47.638;18.966;2023-05-20T13:35:39;16.27;;;7.60;;
71253;SDS011;59019;47.638;18.966;2023-05-20T13:38:05;12.00;;;7.07;;
71253;SDS011;59019;47.638;18.966;2023-05-20T13:40:30;9.43;;;6.67;;
71253;SDS011;59019;47.638;18.966;2023-05-20T13:42:56;13.90;;;7.10;;
71253;SDS011;59019;47.638;18.966;2023-05-20T13:45:21;20.02;;;7.38;;
71253;SDS011;59019;47.638;18.966;2023-05-20T13:47:47;23.17;;;14.40;;
71253;SDS011;59019;47.638;18.966;2023-05-20T13:50:12;26.20;;;13.27;;
71253;SDS011;59019;47.638;18.966;2023-05-20T13:52:38;11.32;;;7.63;;
71253;SDS011;59019;47.638;18.966;2023-05-20T13:55:03;10.23;;;6.37;;
71253;SDS011;59019;47.638;18.966;2023-05-20T13:57:29;8.60;;;6.53;;
71253;SDS011;59019;47.638;18.966;2023-05-20T13:59:55;10.70;;;6.67;;
71253;SDS011;59019;47.638;18.966;2023-05-20T14:02:20;10.33;;;7.00;;
71253;SDS011;59019;47.638;18.966;2023-05-20T14:04:46;14.55;;;6.82;;
71253;SDS011;59019;47.638;18.966;2023-05-20T14:07:12;9.57;;;6.23;;
71253;SDS011;59019;47.638;18.966;2023-05-20T14:09:37;9.40;;;6.95;;
71253;SDS011;59019;47.638;18.966;2023-05-20T14:12:03;14.53;;;9.00;;
71253;SDS011;59019;47.638;18.966;2023-05-20T14:14:30;11.20;;;6.90;;
71253;SDS011;59019;47.638;18.966;2023-05-20T14:16:56;10.43;;;7.20;;
71253;SDS011;59019;47.638;18.966;2023-05-20T14:19:21;9.10;;;6.57;;
71253;SDS011;59019;47.638;18.966;2023-05-20T14:21:47;13.63;;;6.87;;
71253;SDS011;59019;47.638;18.966;2023-05-20T14:24:12;13.33;;;7.10;;
71253;SDS011;59019;47.638;18.966;2023-05-20T14:26:38;12.57;;;7.95;;
71253;SDS011;59019;47.638;18.966;2023-05-20T14:29:03;9.60;;;6.90;;
71253;SDS011;59019;47.638;18.966;2023-05-20T14:31:29;11.23;;;7.40;;
71253;SDS011;59019;47.638;18.966;2023-05-20T14:33:54;10.20;;;7.32;;
71253;SDS011;59019;47.638;18.966;2023-05-20T14:36:20;9.93;;;6.87;;
71253;SDS011;59019;47.638;18.966;2023-05-20T14:38:45;11.07;;;6.83;;
71253;SDS011;59019;47.638;18.966;2023-05-20T14:41:12;19.83;;;10.95;;
71253;SDS011;59019;47.638;18.966;2023-05-20T14:43:37;10.87;;;7.60;;
71253;SDS011;59019;47.638;18.966;2023-05-20T14:46:03;10.32;;;6.85;;
71253;SDS011;59019;47.638;18.966;2023-05-20T14:48:29;11.13;;;6.80;;
71253;SDS011;59019;47.638;18.966;2023-05-20T14:50:54;10.50;;;7.05;;
71253;SDS011;59019;47.638;18.966;2023-05-20T14:53:20;11.83;;;6.97;;